createdAt,value
2017-12-02T00:01:26.447Z,3.50
2017-12-02T00:06:53.884Z,3.40
2017-12-02T00:09:34.576Z,3.40
2017-12-02T00:12:12.274Z,3.40
2017-12-02T00:14:50.157Z,3.30
2017-12-02T00:17:25.000Z,3.30
2017-12-02T00:20:03.155Z,3.30
2017-12-02T00:22:42.669Z,3.30
2017-12-02T00:25:25.707Z,3.30
2017-12-02T00:28:09.804Z,3.30
2017-12-02T00:30:45.651Z,3.40
2017-12-02T00:33:23.658Z,3.40
2017-12-02T00:36:05.896Z,3.50
2017-12-02T00:38:46.997Z,3.60
2017-12-02T00:41:25.514Z,3.60
2017-12-02T00:44:02.668Z,4.30
2017-12-02T00:46:42.631Z,3.50
2017-12-02T00:49:22.951Z,3.40
2017-12-02T00:52:02.396Z,3.40
2017-12-02T00:54:43.781Z,3.50
2017-12-02T00:57:19.909Z,3.50
2017-12-02T00:59:58.187Z,3.50
2017-12-02T01:02:34.007Z,4.60
2017-12-02T01:05:14.193Z,3.40
2017-12-02T01:07:59.671Z,3.50
2017-12-02T01:10:42.468Z,3.40
2017-12-02T01:13:32.158Z,3.40
2017-12-02T01:16:13.415Z,3.20
2017-12-02T01:18:56.806Z,3.20
2017-12-02T01:21:36.822Z,3.10
2017-12-02T01:24:21.757Z,2.80
2017-12-02T01:26:58.399Z,2.60
2017-12-02T01:29:37.875Z,2.60
2017-12-02T01:32:14.159Z,2.70
2017-12-02T01:34:55.758Z,2.90
2017-12-02T01:37:39.591Z,3.00
2017-12-02T01:40:22.780Z,3.10
2017-12-02T01:43:07.531Z,3.10
2017-12-02T01:45:45.012Z,3.10
2017-12-02T01:48:24.237Z,3.10
2017-12-02T01:51:04.566Z,3.20
2017-12-02T01:53:44.005Z,3.10
2017-12-02T01:59:19.993Z,3.10
2017-12-02T02:02:04.096Z,3.10
2017-12-02T02:04:51.719Z,3.10
2017-12-02T02:07:29.157Z,2.40
2017-12-02T02:10:07.567Z,3.30
2017-12-02T02:12:50.340Z,2.50
2017-12-02T02:15:30.557Z,3.20
2017-12-02T02:18:09.535Z,3.20
2017-12-02T02:20:46.427Z,3.20
2017-12-02T02:23:25.220Z,3.20
2017-12-02T02:25:59.990Z,3.20
2017-12-02T02:28:43.912Z,3.40
2017-12-02T02:31:16.993Z,3.30
2017-12-02T02:33:53.546Z,3.40
2017-12-02T02:36:26.546Z,3.30
2017-12-02T02:39:10.151Z,3.20
2017-12-02T02:41:44.556Z,3.20
2017-12-02T02:44:21.002Z,3.10
2017-12-02T02:47:01.375Z,3.10
2017-12-02T02:49:46.556Z,3.10
2017-12-02T02:52:24.292Z,3.20
2017-12-02T02:55:03.067Z,3.20
2017-12-02T02:57:43.963Z,2.70
2017-12-02T03:00:18.828Z,3.40
2017-12-02T03:03:03.331Z,3.50
2017-12-02T03:05:42.898Z,3.60
2017-12-02T03:08:22.042Z,3.70
2017-12-02T03:10:59.021Z,3.80
2017-12-02T03:13:36.562Z,3.90
2017-12-02T03:16:23.055Z,3.90
2017-12-02T03:19:03.331Z,3.90
2017-12-02T03:22:09.963Z,4.00
2017-12-02T03:24:51.051Z,4.00
2017-12-02T03:27:30.105Z,4.00
2017-12-02T03:30:10.725Z,4.10
2017-12-02T03:32:50.801Z,4.10
2017-12-02T03:35:26.482Z,4.00
2017-12-02T03:38:04.823Z,3.90
2017-12-02T03:40:42.487Z,3.90
2017-12-02T03:43:23.420Z,3.90
2017-12-02T03:45:59.665Z,3.90
2017-12-02T03:48:48.481Z,3.90
2017-12-02T03:51:25.322Z,3.80
2017-12-02T03:54:04.700Z,3.60
2017-12-02T03:56:45.373Z,3.70
2017-12-02T04:02:31.601Z,3.90
2017-12-02T04:05:07.781Z,3.70
2017-12-02T04:07:45.658Z,3.60
2017-12-02T04:10:23.880Z,3.60
2017-12-02T04:13:03.248Z,3.60
2017-12-02T04:15:46.336Z,3.60
2017-12-02T04:21:14.809Z,2.70
2017-12-02T04:23:52.610Z,3.60
2017-12-02T04:26:32.304Z,3.50
2017-12-02T04:29:15.951Z,3.70
2017-12-02T04:31:51.717Z,3.60
2017-12-02T04:34:32.555Z,3.50
2017-12-02T04:37:25.118Z,3.50
2017-12-02T04:40:02.759Z,3.50
2017-12-02T04:42:48.535Z,3.40
2017-12-02T04:45:29.404Z,3.30
2017-12-02T04:48:09.997Z,3.30
2017-12-02T04:50:49.819Z,3.30
2017-12-02T04:53:30.340Z,3.20
2017-12-02T04:56:09.466Z,3.40
2017-12-02T04:58:50.407Z,3.40
2017-12-02T05:01:30.659Z,3.40
2017-12-02T05:04:13.940Z,3.60
2017-12-02T05:06:49.858Z,3.20
2017-12-02T05:09:29.011Z,3.80
2017-12-02T05:12:17.972Z,3.70
2017-12-02T05:14:54.544Z,3.80
2017-12-02T05:17:34.479Z,3.80
2017-12-02T05:20:12.030Z,3.80
2017-12-02T05:22:52.766Z,3.90
2017-12-02T05:25:33.138Z,3.90
2017-12-02T05:28:06.825Z,3.80
2017-12-02T05:33:31.560Z,3.80
2017-12-02T05:36:09.185Z,3.90
2017-12-02T05:38:47.453Z,3.90
2017-12-02T05:41:28.294Z,4.00
2017-12-02T05:44:03.023Z,4.00
2017-12-02T05:46:41.332Z,4.00
2017-12-02T05:49:23.704Z,3.90
2017-12-02T05:52:02.624Z,4.00
2017-12-02T05:54:41.605Z,4.00
2017-12-02T05:57:19.414Z,4.10
2017-12-02T06:00:00.566Z,4.00
2017-12-02T06:02:35.157Z,4.00
2017-12-02T06:05:09.778Z,4.00
2017-12-02T06:07:45.226Z,4.10
2017-12-02T06:10:37.474Z,4.00
2017-12-02T06:13:17.762Z,4.00
2017-12-02T06:15:54.122Z,4.10
2017-12-02T06:18:32.649Z,4.20
2017-12-02T06:22:10.333Z,4.90
2017-12-02T06:24:46.280Z,4.20
2017-12-02T06:27:26.784Z,4.30
2017-12-02T06:30:10.403Z,4.20
2017-12-02T06:32:46.316Z,3.70
2017-12-02T06:35:23.082Z,4.20
2017-12-02T06:38:00.419Z,4.10
2017-12-02T06:40:37.636Z,4.20
2017-12-02T06:43:16.437Z,4.20
2017-12-02T06:45:59.762Z,4.20
2017-12-02T06:48:39.498Z,4.20
2017-12-02T06:51:15.373Z,4.10
2017-12-02T06:54:00.794Z,4.10
2017-12-02T06:56:36.281Z,4.10
2017-12-02T06:59:15.185Z,4.10
2017-12-02T07:01:57.090Z,4.10
2017-12-02T07:04:38.057Z,4.20
2017-12-02T07:10:09.188Z,4.10
2017-12-02T07:12:53.278Z,3.80
2017-12-02T07:15:29.750Z,3.70
2017-12-02T07:18:13.398Z,3.80
2017-12-02T07:20:51.310Z,3.70
2017-12-02T07:23:30.227Z,3.60
2017-12-02T07:26:08.315Z,3.60
2017-12-02T07:28:45.480Z,3.70
2017-12-02T07:31:21.257Z,5.00
2017-12-02T07:33:56.645Z,4.50
2017-12-02T07:36:42.415Z,4.60
2017-12-02T07:39:23.843Z,3.50
2017-12-02T07:41:58.323Z,2.90
2017-12-02T07:44:43.952Z,3.20
2017-12-02T07:47:24.216Z,3.20
2017-12-02T07:50:02.766Z,3.20
2017-12-02T07:52:47.967Z,3.10
2017-12-02T07:55:22.506Z,3.10
2017-12-02T07:57:56.614Z,3.00
2017-12-02T08:00:39.286Z,3.50
2017-12-02T08:03:16.503Z,3.70
2017-12-02T08:06:04.171Z,3.80
2017-12-02T08:08:47.472Z,3.90
2017-12-02T08:11:32.502Z,3.90
2017-12-02T08:14:06.769Z,4.00
2017-12-02T08:16:49.849Z,4.00
2017-12-02T08:19:25.675Z,4.00
2017-12-02T08:22:06.840Z,4.10
2017-12-02T08:24:45.874Z,3.90
2017-12-02T08:27:21.674Z,4.10
2017-12-02T08:30:16.381Z,4.00
2017-12-02T08:32:56.040Z,3.70
2017-12-02T08:35:37.270Z,3.20
2017-12-02T08:38:23.339Z,4.00
2017-12-02T08:40:59.745Z,3.00
2017-12-02T08:43:35.160Z,2.70
2017-12-02T08:46:11.489Z,2.70
2017-12-02T08:48:58.750Z,2.60
2017-12-02T09:02:57.470Z,2.80
2017-12-02T09:05:38.741Z,3.20
2017-12-02T09:08:17.239Z,3.10
2017-12-02T09:10:56.854Z,3.10
2017-12-02T09:13:38.347Z,3.00
2017-12-02T09:16:18.043Z,2.90
2017-12-02T09:18:59.371Z,2.70
2017-12-02T09:24:35.872Z,2.60
2017-12-02T09:27:16.573Z,3.00
2017-12-02T09:32:41.354Z,3.20
2017-12-02T09:35:18.549Z,3.30
2017-12-02T09:37:58.157Z,3.50
2017-12-02T09:40:37.671Z,3.50
2017-12-02T09:43:24.073Z,3.50
2017-12-02T09:46:03.629Z,3.60
2017-12-02T09:48:43.843Z,3.60
2017-12-02T09:51:19.688Z,3.60
2017-12-02T09:53:59.194Z,3.60
2017-12-02T09:56:39.228Z,2.90
2017-12-02T09:59:18.470Z,3.70
2017-12-02T10:04:43.105Z,3.70
2017-12-02T10:07:20.990Z,3.70
2017-12-02T10:12:51.934Z,5.20
2017-12-02T10:15:31.892Z,3.50
2017-12-02T10:18:10.192Z,4.30
2017-12-02T10:20:48.268Z,4.10
2017-12-02T10:23:28.867Z,4.10
2017-12-02T10:26:04.663Z,4.10
2017-12-02T10:28:40.648Z,4.30
2017-12-02T10:31:15.116Z,4.40
2017-12-02T10:34:01.108Z,4.20
2017-12-02T10:36:38.024Z,4.10
2017-12-02T10:39:16.197Z,4.00
2017-12-02T10:41:51.487Z,3.90
2017-12-02T10:44:33.061Z,2.90
2017-12-02T10:47:09.983Z,3.70
2017-12-02T10:49:50.780Z,3.20
2017-12-02T10:52:30.341Z,3.20
2017-12-02T10:55:06.502Z,3.20
2017-12-02T10:57:42.159Z,3.20
2017-12-02T11:00:19.593Z,3.20
2017-12-02T11:03:02.144Z,3.40
2017-12-02T11:05:41.336Z,3.40
2017-12-02T11:08:23.342Z,4.30
2017-12-02T11:11:02.747Z,4.10
2017-12-02T11:13:39.069Z,3.40
2017-12-02T11:16:18.261Z,3.30
2017-12-02T11:21:49.362Z,3.20
2017-12-02T11:24:33.266Z,3.30
2017-12-02T11:27:37.498Z,3.20
2017-12-02T11:33:08.494Z,3.10
2017-12-02T11:35:50.033Z,3.00
2017-12-02T11:38:31.202Z,2.90
2017-12-02T11:41:08.328Z,2.90
2017-12-02T11:43:45.510Z,2.90
2017-12-02T11:46:29.106Z,2.90
2017-12-02T11:52:06.644Z,2.80
2017-12-02T11:54:44.938Z,2.70
2017-12-02T11:57:27.583Z,2.70
2017-12-02T12:00:06.615Z,2.80
2017-12-02T12:02:45.711Z,2.90
2017-12-02T12:05:32.321Z,3.10
2017-12-02T12:10:54.622Z,3.20
2017-12-02T12:13:34.591Z,3.40
2017-12-02T12:16:11.830Z,3.50
2017-12-02T12:18:46.005Z,3.60
2017-12-02T12:21:23.784Z,3.60
2017-12-02T12:23:58.519Z,3.70
2017-12-02T12:26:36.097Z,3.60
2017-12-02T12:29:13.154Z,3.40
2017-12-02T12:31:49.181Z,3.40
2017-12-02T12:34:24.879Z,3.30
2017-12-02T12:37:05.319Z,3.20
2017-12-02T12:39:50.710Z,3.00
2017-12-02T12:45:18.170Z,3.10
2017-12-02T12:47:56.516Z,3.50
2017-12-02T12:50:38.210Z,3.50
2017-12-02T12:53:21.968Z,3.70
2017-12-02T12:56:00.608Z,3.80
2017-12-02T12:58:41.002Z,3.40
2017-12-02T13:01:21.307Z,3.20
2017-12-02T13:04:01.114Z,3.20
2017-12-02T13:06:40.503Z,3.10
2017-12-02T13:09:21.991Z,2.70
2017-12-02T13:12:12.769Z,3.20
2017-12-02T13:14:49.369Z,3.30
2017-12-02T13:17:25.564Z,3.50
2017-12-02T13:20:04.481Z,3.50
2017-12-02T13:22:50.249Z,3.50
2017-12-02T13:25:36.788Z,3.50
2017-12-02T13:28:23.701Z,3.30
2017-12-02T13:31:21.481Z,3.60
2017-12-02T13:34:03.980Z,3.60
2017-12-02T13:36:47.052Z,3.50
2017-12-02T13:39:27.602Z,3.40
2017-12-02T13:42:08.086Z,3.40
2017-12-02T13:44:57.231Z,3.60
2017-12-02T13:47:33.873Z,3.50
2017-12-02T13:50:14.624Z,3.80
2017-12-02T13:52:54.907Z,4.00
2017-12-02T13:55:44.572Z,3.80
2017-12-02T13:58:42.923Z,4.20
2017-12-02T14:04:12.259Z,3.30
2017-12-02T14:06:52.256Z,3.30
2017-12-02T14:09:42.614Z,3.20
2017-12-02T14:15:24.901Z,3.30
2017-12-02T14:18:11.647Z,3.30
2017-12-02T14:20:57.576Z,3.40
2017-12-02T14:23:42.608Z,3.50
2017-12-02T14:26:21.974Z,3.30
2017-12-02T14:32:01.366Z,3.20
2017-12-02T14:34:42.847Z,3.10
2017-12-02T14:40:32.078Z,2.80
2017-12-02T14:43:18.448Z,2.70
2017-12-02T14:46:14.008Z,2.70
2017-12-02T14:48:53.256Z,2.80
2017-12-02T14:51:41.644Z,3.70
2017-12-02T14:54:26.468Z,2.80
2017-12-02T14:57:08.676Z,2.80
2017-12-02T14:59:59.292Z,2.60
2017-12-02T15:02:42.447Z,2.50
2017-12-02T15:05:32.036Z,2.50
2017-12-02T15:08:13.538Z,2.40
2017-12-02T15:10:52.179Z,2.60
2017-12-02T15:16:28.577Z,2.70
2017-12-02T15:19:24.282Z,2.70
2017-12-02T15:22:06.709Z,2.50
2017-12-02T15:24:58.168Z,2.40
2017-12-02T15:27:41.941Z,2.60
2017-12-02T15:30:27.878Z,2.60
2017-12-02T15:33:14.434Z,2.50
2017-12-02T15:35:52.394Z,3.00
2017-12-02T15:38:28.608Z,3.20
2017-12-02T15:41:10.770Z,3.20
2017-12-02T15:43:48.906Z,3.30
2017-12-02T15:46:29.563Z,3.40
2017-12-02T15:49:09.556Z,3.50
2017-12-02T15:51:49.349Z,3.50
2017-12-02T15:54:31.449Z,3.40
2017-12-02T15:57:12.507Z,3.40
2017-12-02T15:59:49.823Z,4.80
2017-12-02T16:02:30.829Z,3.40
2017-12-02T16:05:12.535Z,3.20
2017-12-02T16:07:51.629Z,3.10
2017-12-02T16:10:29.192Z,3.10
2017-12-02T16:13:06.658Z,3.10
2017-12-02T16:16:20.613Z,3.00
2017-12-02T16:19:02.622Z,3.40
2017-12-02T16:21:50.908Z,3.20
2017-12-02T16:24:46.710Z,3.20
2017-12-02T16:27:22.426Z,3.00
2017-12-02T16:30:00.556Z,3.00
2017-12-02T16:32:45.136Z,3.10
2017-12-02T16:35:30.030Z,3.10
2017-12-02T16:38:10.143Z,3.00
2017-12-02T16:40:52.864Z,3.10
2017-12-02T16:43:32.618Z,3.20
2017-12-02T16:46:10.771Z,3.10
2017-12-02T16:48:55.582Z,3.20
2017-12-02T16:51:36.141Z,3.00
2017-12-02T16:54:21.514Z,3.00
2017-12-02T16:57:00.482Z,3.10
2017-12-02T16:59:44.778Z,3.10
2017-12-02T17:08:07.869Z,3.20
2017-12-02T17:10:45.952Z,3.10
2017-12-02T17:13:24.057Z,2.80
2017-12-02T17:16:03.593Z,2.90
2017-12-02T17:18:48.282Z,2.30
2017-12-02T17:21:33.748Z,3.00
2017-12-02T17:24:24.913Z,2.40
2017-12-02T17:27:04.588Z,3.20
2017-12-02T17:29:53.517Z,3.60
2017-12-02T17:32:37.678Z,3.60
2017-12-02T17:40:48.838Z,3.90
2017-12-02T17:43:30.484Z,4.00
2017-12-02T17:46:13.945Z,4.10
2017-12-02T17:48:55.889Z,4.10
2017-12-02T17:51:35.846Z,4.00
2017-12-02T17:54:16.144Z,4.00
2017-12-02T17:56:59.071Z,3.90
2017-12-02T17:59:56.965Z,4.00
2017-12-02T18:02:36.093Z,3.50
2017-12-02T18:08:11.209Z,4.00
2017-12-02T18:10:49.776Z,4.10
2017-12-02T18:13:30.577Z,4.20
2017-12-02T18:16:12.191Z,4.30
2017-12-02T18:18:56.068Z,4.30
2017-12-02T18:21:36.075Z,4.30
2017-12-02T18:24:12.199Z,4.30
2017-12-02T18:26:53.246Z,4.20
2017-12-02T18:29:33.468Z,4.20
2017-12-02T18:35:06.950Z,4.20
2017-12-02T18:37:42.501Z,4.20
2017-12-02T18:40:20.231Z,4.30
2017-12-02T18:43:06.283Z,4.20
2017-12-02T18:45:46.780Z,4.20
2017-12-02T18:48:29.180Z,4.20
2017-12-02T18:51:11.561Z,4.20
2017-12-02T18:54:03.322Z,4.20
2017-12-02T18:56:47.151Z,4.20
2017-12-02T19:02:26.473Z,4.20
2017-12-02T19:05:11.972Z,4.20
2017-12-02T19:07:54.635Z,4.30
2017-12-02T19:10:33.460Z,4.30
2017-12-02T19:13:15.066Z,4.30
2017-12-02T19:16:08.907Z,4.30
2017-12-02T19:19:01.628Z,4.30
2017-12-02T19:21:41.363Z,4.20
2017-12-02T19:24:21.486Z,4.20
2017-12-02T19:27:01.130Z,4.10
2017-12-02T19:29:42.534Z,3.60
2017-12-02T19:32:24.083Z,3.60
2017-12-02T19:35:05.457Z,3.60
2017-12-02T19:37:45.724Z,3.50
2017-12-02T19:40:24.498Z,3.40
2017-12-02T19:43:16.413Z,3.50
2017-12-02T19:45:55.837Z,3.50
2017-12-02T19:48:37.175Z,2.90
2017-12-02T19:51:19.550Z,3.70
2017-12-02T19:53:58.334Z,3.90
2017-12-02T19:56:37.604Z,3.90
2017-12-02T19:59:17.461Z,3.90
2017-12-02T20:01:57.066Z,3.90
2017-12-02T20:04:33.975Z,3.90
2017-12-02T20:07:17.696Z,3.90
2017-12-02T20:10:01.121Z,3.90
2017-12-02T20:12:36.493Z,3.90
2017-12-02T20:15:18.103Z,3.80
2017-12-02T20:17:58.249Z,3.80
2017-12-02T20:20:36.682Z,3.70
2017-12-02T20:23:15.228Z,3.70
2017-12-02T20:25:57.322Z,3.70
2017-12-02T20:28:36.299Z,5.00
2017-12-02T20:31:22.942Z,3.80
2017-12-02T20:34:00.268Z,3.80
2017-12-02T20:36:42.044Z,3.70
2017-12-02T20:39:20.774Z,3.70
2017-12-02T20:41:56.303Z,3.60
2017-12-02T20:44:38.491Z,3.60
2017-12-02T20:47:17.021Z,3.50
2017-12-02T20:49:58.099Z,3.40
2017-12-02T20:52:37.005Z,3.30
2017-12-02T20:55:43.647Z,3.30
2017-12-02T20:58:27.426Z,3.20
2017-12-02T21:01:03.950Z,3.20
2017-12-02T21:03:44.242Z,3.10
2017-12-02T21:06:21.851Z,3.10
2017-12-02T21:09:00.901Z,3.00
2017-12-02T21:11:38.326Z,2.90
2017-12-02T21:14:16.670Z,2.80
2017-12-02T21:16:51.984Z,2.80
2017-12-02T21:19:28.298Z,2.70
2017-12-02T21:22:09.916Z,2.70
2017-12-02T21:24:47.836Z,2.70
2017-12-02T21:27:36.068Z,2.60
2017-12-02T21:30:18.758Z,2.50
2017-12-02T21:32:59.261Z,2.40
2017-12-02T21:35:39.535Z,2.30
2017-12-02T21:38:20.170Z,2.30
2017-12-02T21:41:01.628Z,2.30
2017-12-02T21:43:40.160Z,2.20
2017-12-02T21:46:17.062Z,2.20
2017-12-02T21:49:10.535Z,2.20
2017-12-02T21:51:59.596Z,2.10
2017-12-02T21:54:39.137Z,2.10
2017-12-02T21:57:20.857Z,2.10
2017-12-02T22:00:07.155Z,2.10
2017-12-02T22:02:48.475Z,2.10
2017-12-02T22:05:32.551Z,2.10
2017-12-02T22:08:15.785Z,2.10
2017-12-02T22:10:55.861Z,2.10
2017-12-02T22:13:39.444Z,2.10
2017-12-02T22:16:16.818Z,2.00
2017-12-02T22:18:59.137Z,1.90
2017-12-02T22:21:35.407Z,1.90
2017-12-02T22:24:13.657Z,1.80
2017-12-02T22:26:52.584Z,1.80
2017-12-02T22:29:32.273Z,1.90
2017-12-02T22:32:11.965Z,1.80
2017-12-02T22:34:59.856Z,2.00
2017-12-02T22:37:40.087Z,2.00
2017-12-02T22:40:16.155Z,2.10
2017-12-02T22:43:00.981Z,2.10
2017-12-02T22:45:45.875Z,2.10
2017-12-02T22:48:22.378Z,2.00
2017-12-02T22:51:02.000Z,2.00
2017-12-02T22:53:37.921Z,2.00
2017-12-02T22:56:17.829Z,1.90
2017-12-02T22:59:04.388Z,1.90
2017-12-02T23:01:50.613Z,1.90
2017-12-02T23:04:31.869Z,2.00
2017-12-02T23:07:13.144Z,2.00
2017-12-02T23:09:54.849Z,2.10
2017-12-02T23:12:35.864Z,2.00
2017-12-02T23:15:23.720Z,2.10
2017-12-02T23:17:58.160Z,2.00
2017-12-02T23:20:45.309Z,2.00
2017-12-02T23:23:23.938Z,3.40
2017-12-02T23:26:14.960Z,2.00
2017-12-02T23:28:53.921Z,2.00
2017-12-02T23:31:32.160Z,1.90
2017-12-02T23:34:14.366Z,1.90
2017-12-02T23:36:50.292Z,1.90
2017-12-02T23:40:06.681Z,2.00
2017-12-02T23:42:45.566Z,2.00
2017-12-02T23:45:22.966Z,2.20
2017-12-02T23:48:01.852Z,2.20
2017-12-02T23:50:47.615Z,2.30
2017-12-02T23:53:33.452Z,2.30
2017-12-02T23:56:16.214Z,2.30
2017-12-02T23:58:52.495Z,2.30
